Terminal Aerodrome Forecast
Issued by NWS Cleveland, OH

Home | Current Version | Previous Version | Text Only | Print | Product List | Glossary On
Versions: 1 2 3 4 5 6 7 8 9 10 11 12 13 14 15 16 17 18 19 20 21
397
FTUS41 KCLE 271424 AAB
TAFCLE
TAF AMD
KCLE 271424Z 2714/2818 19014G20KT P6SM FEW050 BKN150
      TEMPO 2718/2721 5SM -TSRA BKN030CB OVC060
     FM272100 23015G25KT P6SM BKN040
     FM280200 24012KT P6SM BKN035=

USA.gov is the U.S. government's official web portal to all federal, state and local government web resources and services.